createdAt,value
2023-04-03T00:02:29.213Z,87.75
2023-04-03T00:05:05.992Z,87.36
2023-04-03T00:07:41.199Z,87.06
2023-04-03T00:10:12.527Z,87.26
2023-04-03T00:12:43.126Z,87.28
2023-04-03T00:15:14.049Z,87.40
2023-04-03T00:17:44.813Z,87.59
2023-04-03T00:20:14.893Z,89.29
2023-04-03T00:22:47.490Z,90.26
2023-04-03T00:25:17.471Z,89.77
2023-04-03T00:27:49.026Z,89.29
2023-04-03T00:30:55.748Z,88.95
2023-04-03T00:33:28.749Z,88.77
2023-04-03T00:36:01.681Z,88.74
2023-04-03T00:38:34.160Z,88.72
2023-04-03T00:41:46.157Z,88.67
2023-04-03T00:44:48.974Z,88.50
2023-04-03T00:47:21.224Z,88.24
2023-04-03T00:49:54.382Z,88.30
2023-04-03T00:52:51.330Z,88.25
2023-04-03T00:55:24.812Z,88.33
2023-04-03T00:57:58.232Z,88.34
2023-04-03T01:00:28.529Z,88.37
2023-04-03T01:03:01.725Z,88.25
2023-04-03T01:05:32.134Z,88.32
2023-04-03T01:08:03.333Z,88.38
2023-04-03T01:10:32.915Z,88.34
2023-04-03T01:13:02.987Z,88.38
2023-04-03T01:15:36.173Z,88.22
2023-04-03T01:18:06.934Z,88.32
2023-04-03T01:21:08.658Z,88.44
2023-04-03T01:24:01.818Z,88.31
2023-04-03T01:26:35.346Z,88.43
2023-04-03T01:29:05.186Z,89.11
2023-04-03T01:31:55.857Z,88.93
2023-04-03T01:34:27.170Z,89.50
2023-04-03T01:36:57.933Z,89.00
2023-04-03T01:39:27.844Z,89.83
2023-04-03T01:41:57.618Z,89.56
2023-04-03T01:44:33.830Z,89.60
2023-04-03T01:47:06.739Z,89.70
2023-04-03T01:49:37.603Z,89.82
2023-04-03T01:52:07.282Z,89.80
2023-04-03T01:54:36.913Z,90.46
2023-04-03T01:57:06.529Z,90.80
2023-04-03T01:59:36.735Z,90.58
2023-04-03T02:02:07.067Z,90.27
2023-04-03T02:04:36.795Z,90.16
2023-04-03T02:07:06.985Z,89.92
2023-04-03T02:09:36.705Z,90.01
2023-04-03T02:12:08.091Z,89.93
2023-04-03T02:14:38.163Z,89.93
2023-04-03T02:17:10.742Z,90.36
2023-04-03T02:19:41.184Z,90.67
2023-04-03T02:22:11.178Z,91.23
2023-04-03T02:24:41.450Z,91.18
2023-04-03T02:27:12.107Z,90.89
2023-04-03T02:29:41.749Z,90.61
2023-04-03T02:32:12.071Z,90.79
2023-04-03T02:34:42.128Z,91.00
2023-04-03T02:37:12.796Z,91.27
2023-04-03T02:39:44.306Z,91.25
2023-04-03T02:42:15.214Z,91.09
2023-04-03T02:44:45.940Z,91.19
2023-04-03T02:47:15.455Z,91.22
2023-04-03T02:49:47.116Z,91.15
2023-04-03T02:52:17.123Z,91.13
2023-04-03T02:54:46.845Z,91.14
2023-04-03T02:57:17.045Z,91.12
2023-04-03T02:59:46.885Z,91.10
2023-04-03T03:02:17.275Z,90.74
2023-04-03T03:04:48.420Z,90.35
2023-04-03T03:07:18.244Z,90.43
2023-04-03T03:09:49.228Z,90.26
2023-04-03T03:12:23.032Z,90.23
2023-04-03T03:14:52.864Z,90.20
2023-04-03T03:17:24.844Z,90.17
2023-04-03T03:19:56.608Z,90.07
2023-04-03T03:22:27.837Z,90.01
2023-04-03T03:24:59.794Z,89.82
2023-04-03T03:27:30.111Z,89.73
2023-04-03T03:29:59.562Z,89.60
2023-04-03T03:32:29.798Z,89.56
2023-04-03T03:35:01.468Z,89.63
2023-04-03T03:37:32.061Z,89.65
2023-04-03T03:40:01.823Z,89.50
2023-04-03T03:42:32.031Z,89.46
2023-04-03T03:45:03.595Z,89.63
2023-04-03T03:47:33.227Z,89.75
2023-04-03T03:50:03.953Z,89.76
2023-04-03T03:52:33.740Z,89.73
2023-04-03T03:55:04.331Z,89.72
2023-04-03T03:57:35.480Z,89.76
2023-04-03T04:00:06.668Z,90.11
2023-04-03T04:02:45.963Z,90.37
2023-04-03T04:05:17.324Z,90.14
2023-04-03T04:07:48.051Z,89.87
2023-04-03T04:10:18.555Z,89.73
2023-04-03T04:12:52.647Z,90.11
2023-04-03T04:15:40.882Z,90.57
2023-04-03T04:18:12.474Z,90.45
2023-04-03T04:20:52.203Z,91.04
2023-04-03T04:24:04.221Z,91.19
2023-04-03T04:27:14.335Z,91.07
2023-04-03T04:29:48.772Z,90.74
2023-04-03T04:32:21.462Z,90.45
2023-04-03T04:34:51.701Z,90.46
2023-04-03T04:37:27.112Z,90.80
2023-04-03T04:40:37.810Z,90.74
2023-04-03T04:43:18.139Z,90.66
2023-04-03T04:46:25.530Z,90.54
2023-04-03T04:49:02.030Z,90.21
2023-04-03T04:51:40.912Z,90.10
2023-04-03T04:54:30.836Z,89.93
2023-04-03T04:57:04.644Z,89.78
2023-04-03T04:59:41.447Z,89.21
2023-04-03T05:02:22.824Z,89.01
2023-04-03T05:04:57.511Z,88.88
2023-04-03T05:07:46.828Z,88.96
2023-04-03T05:14:33.234Z,88.21
2023-04-03T05:17:20.680Z,87.54
2023-04-03T05:20:18.937Z,86.18
2023-04-03T05:22:54.732Z,85.76
2023-04-03T05:25:27.412Z,85.74
2023-04-03T05:28:25.297Z,85.77
2023-04-03T05:31:05.759Z,85.78
2023-04-03T05:33:46.709Z,84.92
2023-04-03T05:36:22.584Z,85.40
2023-04-03T05:38:58.285Z,86.08
2023-04-03T05:41:32.513Z,84.44
2023-04-03T05:44:04.611Z,84.92
2023-04-03T05:46:38.122Z,83.95
2023-04-03T05:49:11.133Z,83.45
2023-04-03T05:51:47.112Z,83.68
2023-04-03T05:54:31.507Z,83.90
2023-04-03T05:57:11.241Z,83.42
2023-04-03T05:59:49.222Z,83.04
2023-04-03T06:02:27.470Z,83.11
2023-04-03T06:04:59.850Z,84.35
2023-04-03T06:07:29.713Z,83.87
2023-04-03T06:10:05.436Z,82.72
2023-04-03T06:12:35.545Z,80.68
2023-04-03T06:15:06.016Z,80.60
2023-04-03T06:17:38.828Z,79.95
2023-04-03T06:20:09.208Z,79.77
2023-04-03T06:22:39.438Z,78.60
2023-04-03T06:25:12.919Z,78.24
2023-04-03T06:28:29.425Z,77.81
2023-04-03T06:31:24.555Z,77.06
2023-04-03T06:34:20.812Z,74.82
2023-04-03T06:36:51.996Z,75.26
2023-04-03T06:39:30.706Z,73.91
2023-04-03T06:42:04.013Z,72.68
2023-04-03T06:44:45.690Z,71.77
2023-04-03T06:47:23.810Z,72.93
2023-04-03T06:49:54.546Z,70.97
2023-04-03T06:52:25.569Z,70.08
2023-04-03T06:55:14.863Z,70.44
2023-04-03T06:58:21.928Z,66.88
2023-04-03T07:00:56.009Z,66.79
2023-04-03T07:03:26.948Z,67.89
2023-04-03T07:05:59.325Z,67.27
2023-04-03T07:08:46.857Z,65.58
2023-04-03T07:11:17.317Z,66.58
2023-04-03T07:13:46.747Z,66.69
2023-04-03T07:16:16.447Z,66.11
2023-04-03T07:18:46.941Z,67.37
2023-04-03T07:21:16.499Z,67.39
2023-04-03T07:23:46.323Z,65.03
2023-04-03T07:26:16.066Z,67.16
2023-04-03T07:28:45.711Z,65.85
2023-04-03T07:31:17.099Z,65.34
2023-04-03T07:33:47.449Z,65.92
2023-04-03T07:36:21.277Z,65.81
2023-04-03T07:38:53.099Z,66.07
2023-04-03T07:41:24.337Z,65.67
2023-04-03T07:43:54.117Z,65.28
2023-04-03T07:46:24.906Z,64.12
2023-04-03T07:48:55.661Z,63.70
2023-04-03T07:51:27.329Z,64.21
2023-04-03T07:53:58.377Z,63.20
2023-04-03T07:56:28.260Z,62.52
2023-04-03T07:58:57.932Z,63.10
2023-04-03T08:01:27.588Z,63.27
2023-04-03T08:03:59.437Z,62.79
2023-04-03T08:06:44.925Z,62.84
2023-04-03T08:09:18.364Z,62.04
2023-04-03T08:11:49.232Z,62.49
2023-04-03T08:14:19.724Z,63.62
2023-04-03T08:16:50.249Z,64.25
2023-04-03T08:19:26.270Z,63.39
2023-04-03T08:21:56.488Z,61.79
2023-04-03T08:24:28.362Z,60.01
2023-04-03T08:26:58.941Z,61.29
2023-04-03T08:29:29.030Z,61.10
2023-04-03T08:31:58.911Z,61.99
2023-04-03T08:34:28.742Z,61.57
2023-04-03T08:36:58.569Z,61.62
2023-04-03T08:39:29.944Z,61.45
2023-04-03T08:42:04.097Z,61.63
2023-04-03T08:45:04.859Z,61.06
2023-04-03T08:47:45.093Z,59.30
2023-04-03T08:50:23.122Z,58.98
2023-04-03T08:53:00.338Z,58.69
2023-04-03T08:55:35.809Z,57.64
2023-04-03T08:58:17.666Z,57.27
2023-04-03T09:00:53.159Z,56.89
2023-04-03T09:03:24.540Z,55.63
2023-04-03T09:06:06.598Z,56.20
2023-04-03T09:09:09.705Z,54.75
2023-04-03T09:11:54.415Z,55.00
2023-04-03T09:14:47.593Z,55.28
2023-04-03T09:17:39.653Z,54.68
2023-04-03T09:20:25.548Z,54.38
2023-04-03T09:23:16.520Z,54.10
2023-04-03T09:27:58.460Z,56.38
2023-04-03T09:30:29.891Z,57.46
2023-04-03T09:32:59.447Z,56.81
2023-04-03T09:35:44.728Z,56.09
2023-04-03T09:38:24.393Z,54.82
2023-04-03T09:41:19.592Z,55.15
2023-04-03T09:43:57.015Z,55.00
2023-04-03T09:46:36.305Z,54.91
2023-04-03T09:49:09.714Z,54.82
2023-04-03T09:51:39.859Z,54.10
2023-04-03T09:54:33.128Z,54.48
2023-04-03T09:57:33.968Z,55.41
2023-04-03T10:00:06.199Z,54.49
2023-04-03T10:02:44.145Z,53.66
2023-04-03T10:05:41.231Z,51.52
2023-04-03T10:08:17.099Z,51.06
2023-04-03T10:11:11.419Z,51.47
2023-04-03T10:14:04.669Z,51.53
2023-04-03T10:16:49.546Z,53.94
2023-04-03T10:19:52.349Z,54.24
2023-04-03T10:22:59.416Z,52.42
2023-04-03T10:26:14.448Z,52.45
2023-04-03T10:28:53.455Z,53.36
2023-04-03T10:31:55.483Z,53.75
2023-04-03T10:34:31.151Z,54.01
2023-04-03T10:37:23.402Z,53.95
2023-04-03T10:40:45.819Z,54.02
2023-04-03T10:43:51.974Z,54.36
2023-04-03T10:46:40.304Z,54.05
2023-04-03T10:50:12.764Z,54.23
2023-04-03T10:53:16.210Z,54.54
2023-04-03T10:56:28.059Z,54.48
2023-04-03T10:59:30.844Z,54.34
2023-04-03T11:02:31.259Z,54.64
2023-04-03T11:06:18.611Z,54.72
2023-04-03T11:09:31.845Z,55.22
2023-04-03T11:12:48.664Z,54.51
2023-04-03T11:15:24.114Z,54.41
2023-04-03T11:18:19.296Z,54.87
2023-04-03T11:21:12.439Z,55.58
2023-04-03T11:23:49.911Z,54.55
2023-04-03T11:26:29.822Z,53.40
2023-04-03T11:33:00.624Z,51.93
2023-04-03T11:35:32.038Z,51.82
2023-04-03T11:38:07.651Z,51.66
2023-04-03T11:40:40.447Z,50.65
2023-04-03T11:43:33.822Z,51.93
2023-04-03T11:46:11.496Z,51.78
2023-04-03T11:48:51.230Z,52.75
2023-04-03T11:51:30.353Z,52.40
2023-04-03T11:54:48.301Z,52.11
2023-04-03T11:57:47.618Z,51.86
2023-04-03T12:01:00.577Z,51.19
2023-04-03T12:03:31.087Z,49.71
2023-04-03T12:06:16.283Z,48.85
2023-04-03T12:08:53.964Z,48.33
2023-04-03T12:11:32.393Z,47.86
2023-04-03T12:14:02.253Z,48.22
2023-04-03T12:16:48.974Z,50.07
2023-04-03T12:19:45.904Z,50.77
2023-04-03T12:22:21.887Z,50.34
2023-04-03T12:24:54.078Z,50.32
2023-04-03T12:27:30.515Z,51.14
2023-04-03T12:30:08.367Z,50.47
2023-04-03T12:33:27.229Z,50.26
2023-04-03T12:36:28.069Z,50.16
2023-04-03T12:39:37.825Z,50.56
2023-04-03T12:42:36.768Z,50.51
2023-04-03T12:45:22.592Z,51.19
2023-04-03T12:47:57.576Z,51.25
2023-04-03T12:50:34.150Z,51.86
2023-04-03T12:53:27.500Z,52.70
2023-04-03T12:56:27.964Z,52.69
2023-04-03T12:59:27.465Z,52.96
2023-04-03T13:02:04.626Z,53.44
2023-04-03T13:04:39.681Z,53.56
2023-04-03T13:07:30.856Z,53.48
2023-04-03T13:10:17.725Z,54.27
2023-04-03T13:13:02.239Z,53.92
2023-04-03T13:15:43.351Z,54.66
2023-04-03T13:18:34.715Z,54.81
2023-04-03T13:21:18.551Z,55.01
2023-04-03T13:23:57.433Z,55.19
2023-04-03T13:26:34.273Z,53.98
2023-04-03T13:29:12.747Z,53.94
2023-04-03T13:31:56.897Z,54.52
2023-04-03T13:34:30.343Z,54.47
2023-04-03T13:37:02.612Z,53.73
2023-04-03T13:39:39.913Z,53.02
2023-04-03T13:42:30.753Z,52.29
2023-04-03T13:45:25.866Z,53.30
2023-04-03T13:48:23.401Z,54.24
2023-04-03T13:51:16.088Z,55.16
2023-04-03T13:53:49.764Z,55.67
2023-04-03T13:56:47.719Z,55.85
2023-04-03T13:59:26.430Z,56.45
2023-04-03T14:02:03.709Z,57.61
2023-04-03T14:04:45.798Z,57.31
2023-04-03T14:07:18.174Z,57.95
2023-04-03T14:09:48.260Z,58.27
2023-04-03T14:12:52.221Z,58.61
2023-04-03T14:15:32.319Z,58.45
2023-04-03T14:18:07.438Z,59.36
2023-04-03T14:20:38.128Z,60.36
2023-04-03T14:23:08.098Z,60.27
2023-04-03T14:25:39.310Z,60.28
2023-04-03T14:28:23.355Z,61.07
2023-04-03T14:30:53.092Z,61.91
2023-04-03T14:33:24.247Z,62.02
2023-04-03T14:35:57.772Z,62.52
2023-04-03T14:38:32.425Z,63.23
2023-04-03T14:41:13.739Z,63.89
2023-04-03T14:43:47.294Z,64.17
2023-04-03T14:46:54.351Z,64.06
2023-04-03T14:49:30.899Z,64.40
2023-04-03T14:52:02.081Z,65.03
2023-04-03T14:54:33.005Z,65.93
2023-04-03T14:57:04.365Z,65.89
2023-04-03T14:59:33.997Z,66.39
2023-04-03T15:02:04.243Z,66.76
2023-04-03T15:04:33.932Z,67.16
2023-04-03T15:07:03.576Z,67.02
2023-04-03T15:09:33.317Z,67.36
2023-04-03T15:12:03.819Z,67.63
2023-04-03T15:14:36.851Z,67.74
2023-04-03T15:17:14.595Z,67.75
2023-04-03T15:19:44.211Z,67.90
2023-04-03T15:22:21.080Z,68.10
2023-04-03T15:24:51.017Z,68.07
2023-04-03T15:27:21.985Z,68.17
2023-04-03T15:29:54.246Z,68.24
2023-04-03T15:32:26.577Z,67.93
2023-04-03T15:34:59.124Z,68.27
2023-04-03T15:37:29.282Z,68.42
2023-04-03T15:39:59.167Z,68.70
2023-04-03T15:42:28.881Z,68.92
2023-04-03T15:44:58.961Z,69.17
2023-04-03T15:47:29.551Z,69.29
2023-04-03T15:49:59.303Z,70.27
2023-04-03T15:52:32.468Z,72.08
2023-04-03T15:55:03.676Z,73.51
2023-04-03T16:00:10.091Z,76.05
2023-04-03T16:02:40.489Z,76.05
2023-04-03T16:05:12.335Z,76.94
2023-04-03T16:07:42.649Z,77.12
2023-04-03T16:10:14.115Z,76.84
2023-04-03T16:12:43.893Z,76.95
2023-04-03T16:15:13.691Z,76.97
2023-04-03T16:17:43.781Z,76.54
2023-04-03T16:20:14.680Z,76.79
2023-04-03T16:22:46.069Z,76.68
2023-04-03T16:25:15.664Z,76.30
2023-04-03T16:27:47.604Z,76.20
2023-04-03T16:30:18.081Z,77.19
2023-04-03T16:32:51.102Z,77.35
2023-04-03T16:35:20.860Z,77.44
2023-04-03T16:37:50.432Z,77.25
2023-04-03T16:40:22.722Z,77.41
2023-04-03T16:42:52.078Z,77.10
2023-04-03T16:45:23.941Z,77.19
2023-04-03T16:47:55.160Z,77.11
2023-04-03T16:50:24.879Z,77.07
2023-04-03T16:52:54.659Z,77.00
2023-04-03T16:55:24.279Z,76.77
2023-04-03T16:57:55.734Z,76.22
2023-04-03T17:00:26.465Z,76.07
2023-04-03T17:02:55.972Z,76.09
2023-04-03T17:05:25.747Z,75.75
2023-04-03T17:07:55.858Z,75.53
2023-04-03T17:10:26.770Z,75.25
2023-04-03T17:12:56.234Z,75.43
2023-04-03T17:15:26.789Z,75.56
2023-04-03T17:17:56.482Z,75.54
2023-04-03T17:20:26.979Z,75.78
2023-04-03T17:22:59.155Z,75.95
2023-04-03T17:25:28.634Z,75.53
2023-04-03T17:27:58.119Z,75.26
2023-04-03T17:30:27.723Z,74.99
2023-04-03T17:32:57.127Z,74.83
2023-04-03T17:35:26.702Z,74.91
2023-04-03T17:37:56.471Z,74.65
2023-04-03T17:40:27.787Z,74.77
2023-04-03T17:42:57.186Z,74.93
2023-04-03T17:45:28.737Z,74.95
2023-04-03T17:47:58.731Z,74.98
2023-04-03T17:50:30.209Z,75.03
2023-04-03T17:52:59.826Z,75.11
2023-04-03T17:55:29.476Z,75.04
2023-04-03T17:57:58.863Z,75.25
2023-04-03T18:00:28.356Z,75.85
2023-04-03T18:02:57.946Z,76.23
2023-04-03T18:05:32.562Z,76.56
2023-04-03T18:08:03.801Z,77.26
2023-04-03T18:10:36.583Z,77.43
2023-04-03T18:13:08.662Z,77.96
2023-04-03T18:15:43.969Z,78.32
2023-04-03T18:18:13.493Z,79.18
2023-04-03T18:20:42.976Z,79.03
2023-04-03T18:23:15.213Z,79.65
2023-04-03T18:25:44.786Z,79.96
2023-04-03T18:28:14.419Z,80.18
2023-04-03T18:30:44.195Z,80.29
2023-04-03T18:33:13.663Z,80.28
2023-04-03T18:35:43.251Z,80.26
2023-04-03T18:38:14.474Z,80.60
2023-04-03T18:40:45.010Z,80.75
2023-04-03T18:43:16.097Z,81.41
2023-04-03T18:45:56.338Z,82.11
2023-04-03T18:48:28.147Z,82.21
2023-04-03T18:50:58.900Z,82.48
2023-04-03T18:53:30.870Z,82.78
2023-04-03T18:56:14.155Z,82.98
2023-04-03T18:58:59.378Z,82.86
2023-04-03T19:01:30.152Z,83.60
2023-04-03T19:04:00.804Z,83.37
2023-04-03T19:06:30.843Z,83.76
2023-04-03T19:09:01.821Z,83.92
2023-04-03T19:11:31.953Z,84.45
2023-04-03T19:14:14.376Z,84.93
2023-04-03T19:16:46.071Z,85.19
2023-04-03T19:19:18.845Z,85.73
2023-04-03T19:21:48.845Z,85.81
2023-04-03T19:24:22.669Z,86.10
2023-04-03T19:26:52.201Z,86.18
2023-04-03T19:29:22.130Z,86.53
2023-04-03T19:31:52.682Z,86.80
2023-04-03T19:34:22.206Z,86.86
2023-04-03T19:36:53.020Z,87.19
2023-04-03T19:39:24.342Z,87.76
2023-04-03T19:41:53.893Z,88.18
2023-04-03T19:44:23.278Z,88.67
2023-04-03T19:46:53.149Z,88.31
2023-04-03T19:49:22.567Z,88.21
2023-04-03T19:51:53.595Z,88.67
2023-04-03T19:54:28.853Z,88.76
2023-04-03T19:56:58.648Z,88.64
2023-04-03T19:59:28.345Z,88.67
2023-04-03T20:01:57.862Z,88.81
2023-04-03T20:04:29.269Z,88.99
2023-04-03T20:06:58.700Z,88.76
2023-04-03T20:09:28.220Z,88.93
2023-04-03T20:11:58.172Z,89.09
2023-04-03T20:14:28.643Z,89.22
2023-04-03T20:16:58.171Z,89.52
2023-04-03T20:19:30.563Z,89.36
2023-04-03T20:22:02.618Z,89.27
2023-04-03T20:24:32.121Z,89.17
2023-04-03T20:27:02.043Z,89.25
2023-04-03T20:29:31.638Z,89.36
2023-04-03T20:32:01.704Z,89.74
2023-04-03T20:34:35.318Z,89.43
2023-04-03T20:37:05.972Z,89.70
2023-04-03T20:39:36.604Z,89.68
2023-04-03T20:42:06.860Z,89.61
2023-04-03T20:44:39.718Z,89.50
2023-04-03T20:47:09.676Z,89.53
2023-04-03T20:49:40.237Z,89.77
2023-04-03T20:52:10.310Z,90.22
2023-04-03T20:54:41.436Z,90.25
2023-04-03T20:57:10.814Z,90.30
2023-04-03T20:59:42.521Z,90.51
2023-04-03T21:02:14.065Z,90.58
2023-04-03T21:04:54.078Z,90.61
2023-04-03T21:08:19.891Z,90.48
2023-04-03T21:11:45.727Z,90.76
2023-04-03T21:15:13.652Z,90.82
2023-04-03T21:18:10.248Z,90.96
2023-04-03T21:20:40.717Z,90.53
2023-04-03T21:23:10.493Z,90.12
2023-04-03T21:25:41.283Z,89.26
2023-04-03T21:28:10.703Z,88.46
2023-04-03T21:30:40.460Z,87.78
2023-04-03T21:33:12.501Z,87.50
2023-04-03T21:35:43.089Z,87.51
2023-04-03T21:38:12.828Z,87.25
2023-04-03T21:40:42.527Z,87.09
2023-04-03T21:43:12.573Z,86.70
2023-04-03T21:45:42.710Z,86.57
2023-04-03T21:48:13.962Z,86.46
2023-04-03T21:50:44.035Z,86.20
2023-04-03T21:53:13.534Z,85.87
2023-04-03T21:55:43.110Z,85.98
2023-04-03T21:58:12.524Z,85.87
2023-04-03T22:00:43.403Z,86.24
2023-04-03T22:03:19.201Z,85.98
2023-04-03T22:05:48.637Z,85.60
2023-04-03T22:08:19.403Z,85.47
2023-04-03T22:10:48.871Z,85.69
2023-04-03T22:13:19.318Z,85.86
2023-04-03T22:15:49.580Z,85.64
2023-04-03T22:18:19.113Z,85.52
2023-04-03T22:20:48.525Z,85.30
2023-04-03T22:23:17.826Z,85.38
2023-04-03T22:26:05.386Z,85.31
2023-04-03T22:28:39.128Z,85.44
2023-04-03T22:31:16.856Z,85.59
2023-04-03T22:33:46.561Z,85.48
2023-04-03T22:36:16.139Z,85.82
2023-04-03T22:38:45.793Z,85.95
2023-04-03T22:41:15.233Z,86.23
2023-04-03T22:43:44.868Z,86.26
2023-04-03T22:46:14.846Z,85.96
2023-04-03T22:48:46.722Z,86.24
2023-04-03T22:51:16.241Z,86.30
2023-04-03T22:53:46.009Z,86.45
2023-04-03T22:56:15.381Z,86.69
2023-04-03T22:58:45.335Z,86.68
2023-04-03T23:01:17.324Z,86.78
2023-04-03T23:03:46.886Z,86.83
2023-04-03T23:06:16.459Z,87.04
2023-04-03T23:08:47.980Z,87.20
2023-04-03T23:11:17.408Z,87.11
2023-04-03T23:13:47.031Z,87.09
2023-04-03T23:16:16.482Z,87.22
2023-04-03T23:18:46.106Z,86.98
2023-04-03T23:21:15.597Z,87.12
2023-04-03T23:23:45.503Z,87.33
2023-04-03T23:26:14.952Z,87.22
2023-04-03T23:28:44.410Z,87.23
2023-04-03T23:31:13.984Z,87.04
2023-04-03T23:33:44.757Z,87.05
2023-04-03T23:36:16.384Z,87.24
2023-04-03T23:38:45.842Z,87.17
2023-04-03T23:41:15.254Z,87.03
2023-04-03T23:43:46.530Z,87.04
2023-04-03T23:46:16.162Z,86.87
2023-04-03T23:48:46.735Z,86.62
2023-04-03T23:51:17.345Z,86.43
2023-04-03T23:53:49.821Z,86.24
2023-04-03T23:56:20.272Z,86.17
2023-04-03T23:59:02.190Z,86.28
